Data for 11/08/2010

Time Sea-Level Adjusted Pressure Absolute Pressure Temperature Relative Humidity Dew Point   
(mb) (inHg) (mb) (inHg) (C) (F) (%) (C) (F)
00:05 1009 29.8 838 24.75 12.6 54.6 37 -1.7 29
00:10 1009 29.8 838 24.75 12.5 54.4 38 -1.4 29.5
00:15 1009 29.8 838 24.75 12.2 54 40 -0.8 30.6
00:20 1009 29.8 838 24.75 12.1 53.8 37 -2.2 28.1
00:25 1009 29.8 838 24.75 12.6 54.6 36 -2.1 28.3
00:30 1009 29.8 838 24.75 12.7 54.8 39 -0.7 30.7
00:35 1009 29.8 838 24.75 12.4 54.4 38 -1.4 29.4
00:40 1009 29.8 838 24.75 12.2 53.9 39 -1.4 29.4
00:45 1008 29.77 838 24.75 12 53.6 39 -1.4 29.4
00:50 1009 29.8 838 24.75 11.9 53.5 40 -1.2 29.8
00:55 1009 29.8 838 24.75 11.8 53.3 41 -1.1 30
01:00 1009 29.8 838 24.75 11.8 53.2 40 -1.2 29.8
01:05 1009 29.8 838 24.75 11.7 53 41 -1.1 30.1
01:10 1009 29.8 838 24.75 11.6 52.8 42 -0.9 30.3
01:15 1009 29.8 838 24.75 11.5 52.6 42 -0.9 30.4
01:20 1009 29.8 838 24.75 11.3 52.3 44 -0.6 31
01:25 1009 29.8 838 24.75 11.2 52.1 44 -0.5 31.1
01:30 1008 29.77 838 24.75 11.1 52 44 -0.7 30.8
01:35 1008 29.77 838 24.75 11.2 52.1 44 -0.7 30.7
01:40 1008 29.77 838 24.75 11.2 52.1 44 -0.6 30.9
01:45 1008 29.77 838 24.75 11.1 51.9 44 -0.7 30.8
01:50 1009 29.8 838 24.75 11 51.9 45 -0.5 31.1
01:55 1009 29.8 838 24.75 10.7 51.3 46 -0.4 31.2
02:00 1009 29.8 838 24.75 10.6 51 47 -0.4 31.3
02:05 1009 29.8 838 24.75 10.5 50.9 46 -0.6 31
02:10 1009 29.8 838 24.75 10.5 50.8 49 0.1 32.2
02:15 1009 29.8 838 24.75 10.7 51.2 49 0.3 32.5
02:20 1009 29.8 838 24.75 10.6 51.1 49 0.3 32.5
02:25 1009 29.8 838 24.75 10.4 50.8 50 0.5 32.8
02:30 1009 29.8 838 24.75 10.4 50.7 51 0.8 33.4
02:35 1009 29.8 838 24.75 10.1 50.2 55 1.4 34.5
02:40 1009 29.8 838 24.75 9.8 49.7 57 1.8 35.3
02:45 1009 29.8 838 24.75 9.3 48.8 61 2.2 36
02:50 1009 29.8 838 24.75 9 48.2 64 2.6 36.6
02:55 1009 29.8 838 24.75 8.7 47.6 67 3 37.4
03:00 1009 29.8 838 24.75 8.4 47 71 3.5 38.3
03:05 1009 29.8 838 24.75 8.2 46.7 73 3.6 38.4
03:10 1009 29.8 838 24.75 8 46.4 74 3.6 38.5
03:15 1009 29.8 838 24.75 8 46.4 73 3.5 38.4
03:20 1009 29.8 838 24.75 7.9 46.2 75 3.7 38.6
03:25 1009 29.8 838 24.75 7.8 46.1 74 3.6 38.4
03:30 1009 29.8 838 24.75 7.7 45.9 73 3.3 37.9
03:35 1009 29.8 838 24.75 7.8 46.1 72 3.1 37.6
03:40 1008 29.77 838 24.75 7.9 46.2 72 3.1 37.6
03:45 1008 29.77 838 24.75 7.9 46.2 71 3.1 37.5
03:50 1008 29.77 838 24.75 7.9 46.3 71 3.1 37.6
03:55 1008 29.77 838 24.75 8 46.3 73 3.5 38.2
04:00 1008 29.77 838 24.75 8 46.3 74 3.7 38.7
04:05 1008 29.77 837 24.72 8 46.4 75 3.9 39
04:10 1008 29.77 837 24.72 7.6 45.6 79 4.1 39.5
04:15 1008 29.77 838 24.75 7.1 44.8 82 4.2 39.6
04:20 1008 29.77 838 24.75 7.1 44.8 80 4 39.2
04:25 1008 29.77 838 24.75 7.3 45.1 79 3.9 38.9
04:30 1008 29.77 838 24.75 7.3 45.2 80 4 39.3
04:35 1008 29.77 838 24.75 7.3 45.2 81 4.3 39.8
04:40 1008 29.77 838 24.75 7.4 45.3 81 4.3 39.8
04:45 1008 29.77 838 24.75 7.3 45.1 82 4.5 40.1
04:50 1008 29.77 838 24.75 6.9 44.4 85 4.5 40.1
04:55 1008 29.77 838 24.75 6.8 44.3 85 4.5 40.1
05:00 1008 29.77 838 24.75 6.7 44.1 86 4.6 40.2
05:05 1008 29.77 838 24.75 6.7 44.1 86 4.5 40.2
05:10 1008 29.77 838 24.75 6.7 44.1 87 4.6 40.3
05:15 1009 29.8 838 24.75 6.7 44 87 4.7 40.5
05:20 1009 29.8 838 24.75 6.6 43.9 89 4.9 40.8
05:25 1009 29.8 838 24.75 6.2 43.2 91 4.8 40.7
05:30 1009 29.8 838 24.75 6.1 43 91 4.7 40.5
05:35 1009 29.8 838 24.75 6 42.8 92 4.7 40.5
05:40 1009 29.8 838 24.75 5.9 42.6 92 4.7 40.5
05:45 1009 29.8 838 24.75 5.8 42.4 92 4.6 40.3
05:50 1009 29.8 838 24.75 5.7 42.2 92 4.4 40
05:55 1009 29.8 838 24.75 5.5 41.8 93 4.4 39.9
06:00 1009 29.8 838 24.75 5.2 41.4 92 4 39.2
06:05 1009 29.8 838 24.75 4.7 40.5 93 3.7 38.6
06:10 1009 29.8 838 24.75 4.5 40.1 93 3.5 38.4
06:15 1009 29.8 838 24.75 4.4 39.9 93 3.4 38.2
06:20 1009 29.8 838 24.75 4.3 39.7 94 3.4 38.1
06:25 1009 29.8 838 24.75 4.2 39.6 94 3.3 37.9
06:30 1009 29.8 838 24.75 4.1 39.5 94 3.2 37.8
06:35 1009 29.8 838 24.75 4.1 39.3 94 3.1 37.6
06:40 1009 29.8 838 24.75 3.9 39 94 3 37.3
06:45 1009 29.8 838 24.75 3.8 38.9 94 3 37.3
06:50 1009 29.8 838 24.75 3.8 38.9 94 2.9 37.2
06:55 1009 29.8 838 24.75 3.7 38.7 94 2.8 37
07:00 1009 29.8 838 24.75 3.6 38.6 93 2.6 36.7
07:05 1009 29.8 838 24.75 3.5 38.3 93 2.5 36.5
07:10 1009 29.8 838 24.75 3.4 38.1 93 2.4 36.4
07:15 1009 29.8 838 24.75 3.3 37.9 93 2.3 36.1
07:20 1009 29.8 838 24.75 3.2 37.7 93 2.2 35.9
07:25 1009 29.8 838 24.75 3.1 37.5 93 2.1 35.7
07:30 1009 29.8 839 24.78 2.8 37.1 93 1.8 35.3
07:35 1009 29.8 839 24.78 2.7 36.9 93 1.7 35.1
07:40 1010 29.83 839 24.78 2.6 36.7 93 1.6 34.9
07:45 1010 29.83 839 24.78 2.2 36 93 1.2 34.2
07:50 1010 29.83 839 24.78 1.8 35.3 93 0.8 33.4
07:55 1010 29.83 839 24.78 1.3 34.3 94 0.4 32.6
08:00 1010 29.83 839 24.78 0.7 33.3 95 0.1 32.1
08:05 1010 29.83 839 24.78 0.5 32.9 96 -0 32
08:10 1010 29.83 839 24.78 0.5 32.9 97 0 32
08:15 1010 29.83 839 24.78 0.5 32.9 97 -0 32
08:20 1010 29.83 839 24.78 0.4 32.7 97 -0.1 31.9
08:25 1010 29.83 839 24.78 0.4 32.7 97 -0 31.9
08:30 1010 29.83 839 24.78 0.4 32.7 97 -0.1 31.9
08:35 1010 29.83 839 24.78 0.4 32.7 97 -0 32
08:40 1010 29.83 839 24.78 0.5 32.9 97 0.1 32.1
08:45 1010 29.83 839 24.78 0.5 32.9 97 0.1 32.1
08:50 1010 29.83 839 24.78 0.5 32.8 97 0 32
08:55 1010 29.83 839 24.78 0.4 32.8 97 0 32
09:00 1010 29.83 839 24.78 0.5 32.8 97 0 32.1
09:05 1010 29.83 839 24.78 0.5 32.8 97 0 32.1
09:10 1010 29.83 839 24.78 0.4 32.8 97 -0 32
09:15 1010 29.83 839 24.78 0.4 32.6 97 -0.1 31.9
09:20 1010 29.83 839 24.78 0.4 32.7 97 -0 31.9
09:25 1010 29.83 839 24.78 0.5 32.8 97 0 32.1
09:30 1010 29.83 839 24.78 0.6 33.1 97 0.2 32.3
09:35 1010 29.83 839 24.78 0.7 33.3 97 0.3 32.5
09:40 1010 29.83 839 24.78 0.7 33.2 97 0.2 32.3
09:45 1010 29.83 839 24.78 0.6 33.1 96 0.1 32.2
09:50 1010 29.83 839 24.78 0.6 33.1 96 0.1 32.2
09:55 1010 29.83 839 24.78 0.7 33.3 96 0.1 32.1
10:00 1010 29.83 839 24.78 0.8 33.4 96 0.2 32.4
10:05 1010 29.83 839 24.78 0.8 33.4 96 0.2 32.3
10:10 1010 29.83 839 24.78 0.7 33.3 96 0.1 32.2
10:15 1010 29.83 839 24.78 0.8 33.4 96 0.2 32.3
10:20 1010 29.83 839 24.78 0.8 33.4 96 0.2 32.3
10:25 1010 29.83 839 24.78 0.8 33.5 96 0.3 32.5
10:30 1010 29.83 839 24.78 0.9 33.7 96 0.3 32.6
10:35 1010 29.83 839 24.78 1 33.9 95 0.4 32.7
10:40 1010 29.83 839 24.78 1.1 34 95 0.4 32.7
10:45 1010 29.83 839 24.78 1.1 34 94 0.3 32.5
10:50 1010 29.83 839 24.78 1 33.8 94 0.2 32.3
10:55 1010 29.83 840 24.81 1.1 33.9 95 0.3 32.5
11:00 1010 29.83 840 24.81 1.1 34 94 0.3 32.6
11:05 1010 29.83 840 24.81 1.2 34.2 94 0.3 32.6
11:10 1010 29.83 840 24.81 1.2 34.2 94 0.3 32.6
11:15 1010 29.83 840 24.81 1.1 34 94 0.2 32.4
11:20 1010 29.83 840 24.81 1 33.8 94 0.1 32.3
11:25 1010 29.83 840 24.81 1 33.7 94 0.1 32.3
11:30 1010 29.83 840 24.81 1.1 33.9 95 0.3 32.5
11:35 1010 29.83 840 24.81 1.1 34 94 0.3 32.5
11:40 1010 29.83 840 24.81 1.1 34 94 0.3 32.5
11:45 1010 29.83 840 24.81 1 33.8 94 0.2 32.4
11:50 1010 29.83 840 24.81 1 33.8 95 0.2 32.4
11:55 1010 29.83 840 24.81 1 33.9 95 0.3 32.5
12:00 1010 29.83 840 24.81 1 33.8 95 0.2 32.4
12:05 1010 29.83 840 24.81 1 33.8 94 0.2 32.3
12:10 1010 29.83 840 24.81 1 33.8 95 0.2 32.4
12:15 1010 29.83 839 24.78 1 33.8 95 0.3 32.5
12:20 1010 29.83 839 24.78 1.1 33.9 95 0.3 32.5
12:25 1010 29.83 839 24.78 0.9 33.7 95 0.2 32.3
12:30 1010 29.83 839 24.78 0.9 33.5 95 0.1 32.2
12:35 1010 29.83 839 24.78 0.8 33.5 95 0.1 32.2
12:40 1010 29.83 839 24.78 0.9 33.6 95 0.2 32.3
12:45 1010 29.83 839 24.78 1 33.8 95 0.3 32.5
12:50 1010 29.83 839 24.78 1 33.8 94 0.2 32.4
12:55 1010 29.83 839 24.78 1 33.8 94 0.2 32.4
13:00 1010 29.83 839 24.78 1 33.8 95 0.2 32.4
13:05 1010 29.83 840 24.81 1 33.7 94 0.1 32.3
13:10 1010 29.83 839 24.78 0.9 33.7 94 0.1 32.2
13:15 1010 29.83 839 24.78 0.9 33.7 95 0.1 32.3
13:20 1010 29.83 839 24.78 0.9 33.7 94 0.1 32.2
13:25 1010 29.83 839 24.78 0.9 33.5 95 0.1 32.1
13:30 1010 29.83 839 24.78 0.9 33.6 95 0.1 32.2
13:35 1010 29.83 839 24.78 0.9 33.5 94 0 32.1
13:40 1010 29.83 839 24.78 0.8 33.5 94 0 32.1
13:45 1010 29.83 839 24.78 0.8 33.5 94 0 32
13:50 1010 29.83 839 24.78 0.8 33.4 95 0 32
13:55 1010 29.83 839 24.78 0.7 33.3 95 -0.1 31.9
14:00 1010 29.83 839 24.78 0.7 33.3 95 -0 31.9
14:05 1010 29.83 839 24.78 0.6 33.1 95 -0.1 31.8
14:10 1010 29.83 839 24.78 0.5 33 95 -0.2 31.7
14:15 1010 29.83 839 24.78 0.5 32.9 96 -0.1 31.8
14:20 1010 29.83 839 24.78 0.5 32.9 96 -0.1 31.8
14:25 1010 29.83 839 24.78 0.5 32.9 96 -0.1 31.8
14:30 1010 29.83 839 24.78 0.5 33 96 -0.1 31.9
14:35 1010 29.83 840 24.81 0.5 32.9 96 -0.1 31.9
14:40 1010 29.83 839 24.78 0.6 33 96 -0.1 31.9
14:45 1010 29.83 839 24.78 0.5 32.9 96 -0.1 31.8
14:50 1010 29.83 839 24.78 0.5 32.9 96 -0.1 31.9
14:55 1010 29.83 839 24.78 0.5 32.9 96 -0.1 31.9
15:00 1010 29.83 839 24.78 0.4 32.8 96 -0.1 31.8
15:05 1010 29.83 840 24.81 0.4 32.8 96 -0.1 31.8
15:10 1010 29.83 840 24.81 0.4 32.7 96 -0.1 31.8
15:15 1010 29.83 840 24.81 0.4 32.7 96 -0.1 31.8
15:20 1011 29.85 840 24.81 0.4 32.7 97 -0.1 31.8
15:25 1011 29.85 840 24.81 0.4 32.7 96 -0.1 31.8
15:30 1011 29.85 840 24.81 0.4 32.7 97 -0.1 31.8
15:35 1011 29.85 840 24.81 0.4 32.7 97 -0.1 31.8
15:40 1011 29.85 840 24.81 0.4 32.7 97 -0.1 31.9
15:45 1011 29.85 840 24.81 0.4 32.8 97 -0 31.9
15:50 1011 29.85 840 24.81 0.4 32.8 97 -0.1 31.9
15:55 1011 29.85 840 24.81 0.4 32.7 97 -0.1 31.9
16:00 1011 29.85 840 24.81 0.4 32.7 97 -0.1 31.8
16:05 1011 29.85 841 24.83 0.4 32.7 97 -0.1 31.8
16:10 1011 29.85 841 24.83 0.4 32.6 97 -0.1 31.8
16:15 1011 29.85 841 24.83 0.3 32.6 97 -0.1 31.8
16:20 1011 29.85 840 24.81 0.3 32.6 97 -0.1 31.8
16:25 1011 29.85 840 24.81 0.3 32.6 97 -0.1 31.8
16:30 1011 29.85 841 24.83 0.3 32.6 97 -0.1 31.8
16:35 1011 29.85 841 24.83 0.3 32.6 97 -0.2 31.7
16:40 1011 29.85 841 24.83 0.3 32.5 97 -0.2 31.7
16:45 1011 29.85 841 24.83 0.3 32.5 97 -0.1 31.7
16:50 1011 29.85 841 24.83 0.3 32.5 97 -0.1 31.7
16:55 1012 29.88 841 24.83 0.2 32.4 97 -0.2 31.7
17:00 1012 29.88 841 24.83 0.2 32.4 97 -0.2 31.7
17:05 1012 29.88 841 24.83 0.3 32.5 97 -0.1 31.8
17:10 1012 29.88 841 24.83 0.3 32.6 97 -0.1 31.9
17:15 1012 29.88 841 24.83 0.3 32.6 97 -0.1 31.8
17:20 1012 29.88 841 24.83 0.3 32.6 97 -0 31.9
17:25 1012 29.88 842 24.86 0.4 32.7 97 0 32.1
17:30 1012 29.88 842 24.86 0.4 32.7 97 -0 32
17:35 1012 29.88 842 24.86 0.3 32.5 97 -0.1 31.8
17:40 1012 29.88 842 24.86 0.3 32.5 97 -0.1 31.8
17:45 1012 29.88 842 24.86 0.2 32.4 97 -0.2 31.7
17:50 1013 29.91 842 24.86 0.1 32.2 97 -0.3 31.5
17:55 1013 29.91 842 24.86 0.1 32.2 97 -0.3 31.5
18:00 1013 29.91 842 24.86 0.2 32.4 97 -0.2 31.7
18:05 1013 29.91 842 24.86 0.2 32.4 97 -0.1 31.8
18:10 1013 29.91 842 24.86 0.3 32.5 97 -0.1 31.8
18:15 1013 29.91 842 24.86 0.2 32.3 97 -0.2 31.6
18:20 1013 29.91 842 24.86 0.2 32.3 97 -0.2 31.6
18:25 1013 29.91 842 24.86 0.1 32.2 97 -0.3 31.5
18:30 1013 29.91 842 24.86 0.1 32.2 97 -0.3 31.5
18:35 1013 29.91 842 24.86 0.2 32.3 97 -0.2 31.6
18:40 1013 29.91 842 24.86 0.1 32.2 97 -0.3 31.5
18:45 1013 29.91 842 24.86 0.1 32.3 97 -0.2 31.6
18:50 1013 29.91 842 24.86 0.2 32.3 97 -0.2 31.6
18:55 1013 29.91 842 24.86 0 32 97 -0.4 31.3
19:00 1013 29.91 842 24.86 -0 31.9 97 -0.4 31.2
19:05 1013 29.91 842 24.86 -0.1 31.8 97 -0.5 31.2
19:10 1013 29.91 842 24.86 -0.1 31.8 97 -0.5 31.1
19:15 1013 29.91 842 24.86 -0.1 31.8 97 -0.5 31
19:20 1013 29.91 842 24.86 -0.2 31.7 97 -0.6 31
19:25 1013 29.91 842 24.86 -0.1 31.7 97 -0.6 31
19:30 1013 29.91 842 24.86 -0.2 31.7 97 -0.6 31
19:35 1013 29.91 842 24.86 -0.2 31.7 97 -0.6 30.9
19:40 1013 29.91 842 24.86 -0.2 31.6 97 -0.6 30.9
19:45 1013 29.91 842 24.86 -0.2 31.6 97 -0.6 30.9
19:50 1013 29.91 842 24.86 -0.2 31.6 97 -0.7 30.8
19:55 1013 29.91 842 24.86 -0.3 31.5 97 -0.6 30.8
20:00 1013 29.91 842 24.86 -0.3 31.5 97 -0.6 30.9
20:05 1013 29.91 842 24.86 -0.3 31.5 97 -0.6 30.9
20:10 1013 29.91 842 24.86 -0.4 31.4 98 -0.7 30.8
20:15 1013 29.91 842 24.86 -0.4 31.3 98 -0.7 30.7
20:20 1013 29.91 842 24.86 -0.3 31.4 98 -0.6 30.8
20:25 1013 29.91 842 24.86 -0.3 31.5 98 -0.6 31
20:30 1013 29.91 842 24.86 -0.3 31.5 98 -0.6 31
20:35 1013 29.91 842 24.86 -0.3 31.5 98 -0.6 30.9
20:40 1013 29.91 842 24.86 -0.3 31.4 98 -0.6 30.8
20:45 1013 29.91 842 24.86 -0.4 31.3 98 -0.7 30.7
20:50 1013 29.91 842 24.86 -0.4 31.2 98 -0.7 30.7
20:55 1013 29.91 842 24.86 -0.5 31.1 98 -0.8 30.6
21:00 1013 29.91 842 24.86 -0.6 31 98 -0.9 30.5
21:05 1013 29.91 842 24.86 -0.6 30.9 98 -0.9 30.4
21:10 1013 29.91 842 24.86 -0.6 30.9 98 -0.9 30.4
21:15 1013 29.91 842 24.86 -0.6 30.9 98 -0.9 30.4
21:20 1013 29.91 842 24.86 -0.6 30.9 98 -0.9 30.4
21:25 1013 29.91 842 24.86 -0.7 30.8 98 -0.9 30.4
21:30 1013 29.91 842 24.86 -0.7 30.8 98 -0.9 30.4
21:35 1013 29.91 842 24.86 -0.7 30.7 98 -1 30.3
21:40 1013 29.91 842 24.86 -0.7 30.8 98 -0.9 30.3
21:45 1013 29.91 842 24.86 -0.7 30.8 98 -0.9 30.3
21:50 1013 29.91 842 24.86 -0.7 30.8 98 -0.9 30.3
21:55 1013 29.91 842 24.86 -0.7 30.8 98 -0.9 30.4
22:00 1013 29.91 842 24.86 -0.7 30.8 98 -0.9 30.3
22:05 1013 29.91 842 24.86 -0.7 30.7 98 -1 30.2
22:10 1013 29.91 842 24.86 -0.7 30.7 98 -1 30.2
22:15 1013 29.91 842 24.86 -0.7 30.7 98 -1 30.2
22:20 1013 29.91 842 24.86 -0.8 30.6 98 -1 30.1
22:25 1013 29.91 842 24.86 -0.8 30.5 98 -1.1 30
22:30 1013 29.91 842 24.86 -0.9 30.4 98 -1.1 30
22:35 1013 29.91 842 24.86 -0.8 30.6 98 -1 30.2
22:40 1013 29.91 842 24.86 -0.7 30.7 98 -1 30.2
22:45 1013 29.91 842 24.86 -0.7 30.7 98 -1 30.2
22:50 1013 29.91 842 24.86 -0.7 30.7 98 -1 30.2
22:55 1013 29.91 842 24.86 -0.7 30.7 98 -0.9 30.3
23:00 1013 29.91 842 24.86 -0.6 30.9 98 -0.9 30.5
23:05 1013 29.91 842 24.86 -0.7 30.8 98 -0.9 30.4
23:10 1013 29.91 842 24.86 -0.7 30.8 98 -0.9 30.4
23:15 1013 29.91 842 24.86 -0.8 30.6 98 -1 30.2
23:20 1013 29.91 842 24.86 -0.8 30.5 98 -1 30.1
23:25 1013 29.91 842 24.86 -0.9 30.5 98 -1.1 30
23:30 1013 29.91 842 24.86 -0.9 30.4 98 -1.2 29.9
23:35 1013 29.91 842 24.86 -0.9 30.4 98 -1.1 30
23:40 1013 29.91 842 24.86 -0.8 30.5 98 -1 30.1
23:45 1013 29.91 842 24.86 -0.8 30.6 98 -1 30.2
23:50 1013 29.91 842 24.86 -0.8 30.6 98 -1 30.2
23:55 1013 29.91 842 24.86 -0.8 30.6 98 -1 30.1
24:00 1013 29.91 842 24.86 -0.8 30.6 98 -1.1 30.1